Time;durP1;ratioP1;P1;durP2;ratioP2;P2;SDS_P1;SDS_P2;PMS_P1;PMS_P2;Temp;Humidity;BMP_temperature;BMP_pressure;BME280_temperature;BME280_humidity;BME280_pressure;Samples;Min_cycle;Max_cycle;Signal;HPM_P1;HPM_P2
2023/10/03 00:01:04;;;;;;;18.27;13.47;;;;;;;12.23;90.36;93754.50;5089550;28;20188;-89
2023/10/03 00:03:30;;;;;;;16.33;14.73;;;;;;;12.08;90.73;93740.63;5089921;28;21231;-85
2023/10/03 00:05:56;;;;;;;17.67;15.47;;;;;;;11.99;91.22;93742.19;5092455;28;20217;-83
2023/10/03 00:08:22;;;;;;;16.87;14.20;;;;;;;12.05;91.38;93746.38;5082358;28;20225;-86
2023/10/03 00:10:48;;;;;;;16.07;14.37;;;;;;;11.93;91.71;93738.78;5089486;28;20181;-86
2023/10/03 00:13:13;;;;;;;15.43;13.93;;;;;;;12.02;91.26;93757.38;5090609;28;20227;-86
2023/10/03 00:15:48;;;;;;;15.83;13.60;;;;;;;11.96;91.71;93750.56;5088032;28;20183;-85
2023/10/03 00:18:15;;;;;;;15.30;13.67;;;;;;;11.97;91.92;93767.84;5080766;28;20223;-86
2023/10/03 00:20:41;;;;;;;15.17;13.77;;;;;;;11.99;91.75;93755.25;5087042;28;20181;-85
2023/10/03 00:23:06;;;;;;;16.37;14.93;;;;;;;11.93;91.75;93764.16;5088756;28;20230;-85
2023/10/03 00:25:32;;;;;;;17.90;14.37;;;;;;;11.79;92.11;93756.00;5076288;28;20304;-85
2023/10/03 00:28:01;;;;;;;17.73;15.93;;;;;;;11.75;92.70;93762.03;5081039;28;20224;-86
2023/10/03 00:30:28;;;;;;;20.07;15.27;;;;;;;11.78;92.59;93748.41;5096801;28;20235;-86
2023/10/03 00:32:56;;;;;;;17.47;15.57;;;;;;;11.74;92.80;93736.88;5082780;28;20223;-85
2023/10/03 00:35:22;;;;;;;16.13;14.43;;;;;;;11.80;92.74;93751.56;5075092;28;20185;-86
2023/10/03 00:37:51;;;;;;;16.00;14.40;;;;;;;11.75;93.14;93744.47;5090055;28;20188;-85
2023/10/03 00:42:52;;;;;;;19.03;16.07;;;;;;;11.70;93.58;93748.91;5083366;28;20244;-85
2023/10/03 00:45:25;;;;;;;16.50;14.30;;;;;;;11.63;93.70;93743.13;5100399;28;20248;-84
2023/10/03 00:47:53;;;;;;;15.63;14.17;;;;;;;11.50;95.04;93741.78;5099133;28;20204;-81
2023/10/03 00:50:19;;;;;;;16.30;14.60;;;;;;;11.52;94.85;93738.91;5084184;28;20228;-84
2023/10/03 00:52:48;;;;;;;15.70;13.70;;;;;;;11.59;93.98;93742.03;5105796;28;20168;-83
2023/10/03 00:55:14;;;;;;;16.07;14.57;;;;;;;11.51;93.85;93738.09;5097113;28;20176;-82
2023/10/03 00:57:39;;;;;;;17.00;15.40;;;;;;;11.47;94.64;93746.72;5075779;28;20180;-84
2023/10/03 01:00:16;;;;;;;21.10;14.90;;;;;;;11.38;94.66;93734.13;5096469;28;20271;-84
2023/10/03 01:02:49;;;;;;;17.67;15.93;;;;;;;11.49;94.83;93750.63;5069922;28;20177;-85
2023/10/03 01:05:16;;;;;;;16.40;14.87;;;;;;;11.17;94.50;93708.91;5077950;28;20183;-85
2023/10/03 01:07:44;;;;;;;16.60;15.00;;;;;;;11.38;94.52;93749.81;5107834;28;20182;-84
2023/10/03 01:10:12;;;;;;;17.43;14.53;;;;;;;11.34;94.49;93746.16;5093260;28;20197;-85
2023/10/03 01:12:38;;;;;;;16.47;14.70;;;;;;;11.36;94.80;93748.50;5092887;28;20172;-84
2023/10/03 01:15:11;;;;;;;19.30;14.10;;;;;;;11.34;94.71;93754.00;5089201;28;20191;-84
2023/10/03 01:17:37;;;;;;;17.50;14.37;;;;;;;11.25;95.26;93742.41;5084390;28;20199;-84
2023/10/03 01:20:08;;;;;;;17.27;15.50;;;;;;;11.30;95.25;93733.81;5090364;28;20180;-84
2023/10/03 01:22:37;;;;;;;16.40;15.00;;;;;;;11.27;95.38;93729.91;5092349;28;20185;-83
2023/10/03 01:25:06;;;;;;;17.93;16.10;;;;;;;11.26;95.30;93722.31;5080509;28;20423;-84
2023/10/03 01:27:32;;;;;;;18.33;16.43;;;;;;;11.38;95.12;93734.13;5089909;28;20191;-85
2023/10/03 01:29:57;;;;;;;15.57;14.03;;;;;;;11.41;95.36;93737.28;5087116;28;20222;-85
2023/10/03 01:32:29;;;;;;;17.07;15.47;;;;;;;11.44;95.66;93740.16;5094036;28;20200;-83
2023/10/03 01:34:55;;;;;;;17.17;15.00;;;;;;;11.36;95.08;93717.91;5091313;28;20243;-85
2023/10/03 01:37:20;;;;;;;16.17;14.57;;;;;;;11.31;95.25;93724.94;5093047;28;20192;-85
2023/10/03 01:39:46;;;;;;;19.23;14.77;;;;;;;11.34;95.39;93722.63;5099060;28;20243;-85
2023/10/03 01:42:11;;;;;;;16.73;14.73;;;;;;;11.38;94.87;93724.72;5092619;28;20198;-85
2023/10/03 01:44:36;;;;;;;16.60;14.87;;;;;;;11.30;94.99;93720.75;5087937;28;20217;-84
2023/10/03 01:47:03;;;;;;;20.90;15.70;;;;;;;11.15;95.96;93729.31;5061271;28;20205;-84
2023/10/03 01:49:29;;;;;;;17.90;15.93;;;;;;;11.19;96.07;93721.78;5086924;28;20251;-85
2023/10/03 01:51:55;;;;;;;16.37;14.77;;;;;;;11.15;96.57;93731.13;5091372;28;20189;-84
2023/10/03 01:54:20;;;;;;;15.10;13.53;;;;;;;11.14;96.42;93712.03;5095141;28;20228;-83
2023/10/03 01:56:45;;;;;;;16.33;14.10;;;;;;;11.08;96.41;93726.13;5092001;28;20188;-84
2023/10/03 01:59:11;;;;;;;17.30;15.23;;;;;;;10.96;96.84;93711.69;5095037;28;20220;-83
2023/10/03 02:01:37;;;;;;;18.57;14.53;;;;;;;11.13;96.91;93730.59;5089304;28;20225;-84
2023/10/03 02:04:03;;;;;;;15.17;13.60;;;;;;;11.11;96.68;93725.63;5088405;28;20219;-84
2023/10/03 02:06:28;;;;;;;17.33;13.57;;;;;;;11.14;96.40;93719.88;5092058;28;20200;-84
2023/10/03 02:08:54;;;;;;;16.73;15.27;;;;;;;11.02;96.70;93719.31;5094958;28;20232;-84
2023/10/03 02:11:19;;;;;;;22.73;15.23;;;;;;;11.07;96.43;93711.50;5092946;28;20189;-84
2023/10/03 02:13:46;;;;;;;20.60;15.03;;;;;;;11.10;96.21;93711.00;5091074;28;20220;-85
2023/10/03 02:16:13;;;;;;;20.33;14.27;;;;;;;10.97;96.59;93692.38;5084831;28;20178;-84
2023/10/03 02:18:40;;;;;;;15.50;14.00;;;;;;;10.96;96.55;93699.44;5088059;28;20223;-84
2023/10/03 02:21:05;;;;;;;17.90;14.63;;;;;;;10.82;96.90;93685.25;5090508;28;20199;-85
2023/10/03 02:23:32;;;;;;;16.43;14.37;;;;;;;10.81;97.00;93686.28;5092167;28;20277;-84
2023/10/03 02:26:10;;;;;;;15.97;14.47;;;;;;;10.68;97.96;93686.72;5076974;28;20229;-84
2023/10/03 02:28:40;;;;;;;21.40;14.70;;;;;;;11.00;96.44;93689.25;5084580;28;20312;-85
2023/10/03 02:31:09;;;;;;;16.03;13.80;;;;;;;10.92;96.21;93674.84;5083394;28;20178;-83
2023/10/03 02:33:44;;;;;;;16.50;14.60;;;;;;;10.83;97.27;93686.03;5088283;28;20243;-84
2023/10/03 02:36:10;;;;;;;15.40;13.63;;;;;;;10.88;96.85;93681.63;5092142;28;20200;-84
2023/10/03 02:38:37;;;;;;;16.37;14.30;;;;;;;10.77;97.40;93680.00;5091413;28;20216;-85
2023/10/03 02:41:06;;;;;;;16.43;14.80;;;;;;;10.81;97.87;93677.66;5091705;28;20198;-84
2023/10/03 02:43:34;;;;;;;17.07;15.33;;;;;;;10.79;97.86;93677.13;5070175;28;20245;-83
2023/10/03 02:46:00;;;;;;;18.90;13.77;;;;;;;10.73;98.48;93672.91;5093162;28;20223;-84
2023/10/03 02:48:26;;;;;;;17.50;14.67;;;;;;;10.71;98.34;93667.16;5097299;28;20242;-85
2023/10/03 02:50:52;;;;;;;16.43;14.77;;;;;;;10.67;98.38;93668.69;5092322;28;20187;-84
2023/10/03 02:53:21;;;;;;;18.70;14.17;;;;;;;10.71;97.64;93660.09;5092069;28;20213;-84
2023/10/03 02:55:48;;;;;;;16.27;14.67;;;;;;;10.71;98.69;93667.94;5093282;28;20255;-88
2023/10/03 02:58:16;;;;;;;15.13;13.67;;;;;;;10.72;97.88;93672.13;5091602;28;20232;-90
2023/10/03 03:00:43;;;;;;;20.33;14.67;;;;;;;10.76;97.98;93677.63;5085600;28;20212;-91
2023/10/03 03:03:10;;;;;;;15.57;13.93;;;;;;;10.56;97.64;93662.66;5076329;28;20220;-90
2023/10/03 03:05:36;;;;;;;15.07;13.47;;;;;;;10.69;98.24;93679.69;5065385;28;20221;-90
2023/10/03 03:08:22;;;;;;;17.83;15.73;;;;;;;10.59;98.56;93683.03;5087086;28;20260;-90
2023/10/03 03:10:55;;;;;;;18.50;14.77;;;;;;;10.61;98.64;93669.72;5055836;28;20182;-89
2023/10/03 03:13:22;;;;;;;19.20;15.30;;;;;;;10.46;100.00;93682.69;5050195;28;20252;-91
2023/10/03 03:16:06;;;;;;;16.30;14.60;;;;;;;10.43;100.00;93678.72;5070167;28;20174;-89
2023/10/03 03:18:53;;;;;;;21.83;16.23;;;;;;;10.49;99.55;93667.28;5070903;28;20229;-90
2023/10/03 03:21:21;;;;;;;16.93;14.47;;;;;;;10.62;98.83;93660.84;5071531;28;20193;-90
2023/10/03 03:23:56;;;;;;;17.50;14.33;;;;;;;10.68;99.16;93689.34;5068082;28;20217;-84
2023/10/03 03:26:27;;;;;;;17.87;15.80;;;;;;;10.74;98.98;93690.94;5070510;28;20216;-91
2023/10/03 03:28:52;;;;;;;17.07;15.27;;;;;;;10.74;98.86;93695.41;5059175;28;20243;-89
2023/10/03 03:31:32;;;;;;;16.73;15.00;;;;;;;10.79;98.72;93698.81;5070276;28;20189;-89
2023/10/03 03:34:00;;;;;;;20.27;15.63;;;;;;;10.70;98.79;93695.09;5068687;28;20218;-90
2023/10/03 03:36:34;;;;;;;23.90;14.77;;;;;;;10.70;98.95;93697.72;5063643;28;20206;-88
2023/10/03 03:39:05;;;;;;;21.90;13.77;;;;;;;10.66;99.27;93699.25;5070425;28;20280;-88
2023/10/03 03:41:30;;;;;;;18.33;16.10;;;;;;;10.61;99.35;93688.78;5059493;28;20187;-88
2023/10/03 03:43:56;;;;;;;17.27;14.73;;;;;;;10.60;98.94;93695.03;5061742;28;20226;-89
2023/10/03 03:46:21;;;;;;;15.73;13.57;;;;;;;10.56;99.65;93698.41;5064759;28;20173;-88
2023/10/03 03:48:47;;;;;;;16.43;14.73;;;;;;;10.52;99.31;93703.34;5070081;28;20247;-88
2023/10/03 03:51:14;;;;;;;21.63;14.73;;;;;;;10.46;100.00;93699.13;5058598;28;20194;-89
2023/10/03 03:53:42;;;;;;;17.77;13.90;;;;;;;10.54;100.00;93701.25;5069201;28;20219;-84
2023/10/03 03:56:07;;;;;;;17.77;13.77;;;;;;;10.37;100.00;93695.41;5063526;28;20187;-89
2023/10/03 03:58:45;;;;;;;18.23;15.87;;;;;;;10.49;100.00;93706.44;5068677;28;20222;-86
2023/10/03 04:01:20;;;;;;;18.43;14.70;;;;;;;10.40;100.00;93712.38;5077080;28;20194;-80
2023/10/03 04:03:49;;;;;;;18.33;15.80;;;;;;;10.43;100.00;93710.06;5094246;28;20212;-79
2023/10/03 04:06:15;;;;;;;16.50;14.87;;;;;;;10.35;99.35;93700.06;5086761;28;20170;-87
2023/10/03 04:08:40;;;;;;;23.77;15.53;;;;;;;10.30;99.90;93715.72;5087185;28;20227;-83
2023/10/03 04:11:09;;;;;;;22.73;14.30;;;;;;;10.20;100.00;93697.34;5085694;28;20178;-82
2023/10/03 04:13:38;;;;;;;19.33;14.93;;;;;;;10.27;100.00;93707.59;5086737;28;20256;-78
2023/10/03 04:16:07;;;;;;;20.63;14.70;;;;;;;10.12;100.00;93702.22;5085981;28;20181;-75
2023/10/03 04:18:37;;;;;;;22.23;14.70;;;;;;;10.21;100.00;93719.81;5086903;28;20207;-83
2023/10/03 04:21:04;;;;;;;21.07;15.77;;;;;;;10.29;100.00;93718.59;5085869;28;20178;-83
2023/10/03 04:23:29;;;;;;;19.07;14.67;;;;;;;10.22;100.00;93712.78;5086867;28;20217;-81
2023/10/03 04:25:55;;;;;;;22.00;16.27;;;;;;;10.19;100.00;93695.78;5089208;28;20236;-83
2023/10/03 04:28:21;;;;;;;28.93;15.00;;;;;;;10.20;100.00;93713.03;5079717;28;20217;-79
2023/10/03 04:30:49;;;;;;;20.87;15.07;;;;;;;10.01;100.00;93696.13;5073277;28;20281;-73
2023/10/03 04:33:20;;;;;;;20.53;15.33;;;;;;;10.26;100.00;93706.78;5086179;28;20233;-73
2023/10/03 04:35:46;;;;;;;21.63;14.30;;;;;;;10.23;100.00;93693.44;5089241;28;20176;-79
2023/10/03 04:38:17;;;;;;;16.73;14.97;;;;;;;10.30;100.00;93705.28;5081566;28;21146;-79
2023/10/03 04:40:43;;;;;;;22.17;15.13;;;;;;;10.39;100.00;93703.78;5088748;28;20181;-78
2023/10/03 04:43:12;;;;;;;19.30;15.80;;;;;;;10.39;99.68;93709.00;5082998;28;20221;-78
2023/10/03 04:45:39;;;;;;;23.93;15.27;;;;;;;10.37;100.00;93698.00;5082411;28;20189;-78
2023/10/03 04:48:05;;;;;;;22.27;15.60;;;;;;;10.29;99.94;93679.44;5080699;28;20310;-78
2023/10/03 04:50:31;;;;;;;18.30;14.77;;;;;;;10.46;100.00;93698.34;5083324;28;20231;-76
2023/10/03 04:52:59;;;;;;;17.67;13.87;;;;;;;10.67;100.00;93706.06;5072571;28;20256;-73
2023/10/03 04:55:24;;;;;;;17.23;14.63;;;;;;;10.70;99.29;93702.94;5085920;28;20184;-74
2023/10/03 04:57:51;;;;;;;18.13;14.97;;;;;;;10.73;99.25;93710.28;5086766;28;20204;-74
2023/10/03 05:00:20;;;;;;;21.93;15.50;;;;;;;10.61;99.56;93691.41;5087491;28;20193;-74
2023/10/03 05:02:50;;;;;;;18.13;15.87;;;;;;;10.80;99.92;93708.22;5086543;28;20197;-73
2023/10/03 05:05:18;;;;;;;16.97;15.17;;;;;;;10.87;99.51;93708.78;5085211;28;20840;-74
2023/10/03 05:07:44;;;;;;;16.63;15.03;;;;;;;10.89;99.43;93704.09;5089962;28;20220;-74
2023/10/03 05:10:10;;;;;;;18.67;14.00;;;;;;;10.90;98.98;93697.03;5080068;28;20208;-74
2023/10/03 05:12:35;;;;;;;20.83;16.03;;;;;;;11.06;98.83;93717.00;5086877;28;20258;-73
2023/10/03 05:15:01;;;;;;;23.63;14.07;;;;;;;11.03;100.00;93715.69;5060422;28;20214;-74
2023/10/03 05:17:27;;;;;;;16.07;13.03;;;;;;;11.14;99.55;93711.28;5055685;28;20256;-75
2023/10/03 05:19:56;;;;;;;20.60;14.30;;;;;;;11.19;99.16;93706.84;5060484;28;20744;-74
2023/10/03 05:22:23;;;;;;;18.57;14.37;;;;;;;11.28;98.99;93718.38;5061280;28;20204;-73
2023/10/03 05:24:49;;;;;;;17.73;13.60;;;;;;;11.25;98.87;93718.91;5083328;28;20213;-74
2023/10/03 05:27:16;;;;;;;24.43;14.70;;;;;;;11.35;98.55;93716.34;5088860;28;20228;-74
2023/10/03 05:29:43;;;;;;;16.80;14.73;;;;;;;11.44;98.32;93731.53;5087105;28;20220;-71
2023/10/03 05:32:08;;;;;;;20.10;14.70;;;;;;;11.61;98.33;93732.13;5085545;28;21407;-72
2023/10/03 05:34:34;;;;;;;17.97;14.07;;;;;;;11.68;97.18;93727.44;5083605;28;20222;-72
2023/10/03 05:37:00;;;;;;;21.05;15.13;;;;;;;11.71;96.93;93737.41;5084668;28;20449;-71
2023/10/03 05:39:26;;;;;;;17.23;14.90;;;;;;;11.71;96.83;93734.78;5084917;28;20224;-71
2023/10/03 05:41:56;;;;;;;18.60;15.27;;;;;;;11.89;95.61;93723.84;5080491;28;20212;-72
2023/10/03 05:44:22;;;;;;;23.03;16.07;;;;;;;11.95;95.29;93728.06;5084493;28;20338;-72
2023/10/03 05:46:52;;;;;;;21.03;17.73;;;;;;;12.06;94.76;93730.41;5085499;28;20186;-72
2023/10/03 05:49:18;;;;;;;29.50;16.43;;;;;;;11.99;95.13;93724.66;5083698;28;20223;-72
2023/10/03 05:51:43;;;;;;;19.30;16.27;;;;;;;12.07;94.96;93732.00;5065712;28;20211;-72
2023/10/03 05:54:09;;;;;;;19.93;15.57;;;;;;;12.12;93.95;93720.75;5066376;28;20284;-73
2023/10/03 05:56:34;;;;;;;25.17;17.50;;;;;;;12.27;94.01;93739.88;5087192;28;20254;-73
2023/10/03 05:59:01;;;;;;;23.47;17.80;;;;;;;12.28;93.49;93733.59;5082241;28;20228;-72
2023/10/03 06:01:27;;;;;;;24.37;16.67;;;;;;;12.20;93.34;93735.94;5081869;28;20169;-72
2023/10/03 06:03:56;;;;;;;20.53;16.33;;;;;;;12.25;93.37;93734.09;5084444;28;20240;-72
2023/10/03 06:06:21;;;;;;;28.57;16.60;;;;;;;12.35;93.04;93728.09;5086254;28;20244;-72
2023/10/03 06:08:49;;;;;;;27.23;16.93;;;;;;;12.28;94.13;93738.06;5086791;28;20226;-73
2023/10/03 06:11:17;;;;;;;24.37;16.97;;;;;;;12.71;91.11;93735.69;5086036;28;20222;-71
2023/10/03 06:13:44;;;;;;;32.10;16.77;;;;;;;12.63;92.12;93735.41;5080887;28;20264;-76
2023/10/03 06:16:14;;;;;;;25.87;16.37;;;;;;;12.68;91.19;93730.94;5091220;28;20599;-73
2023/10/03 06:18:44;;;;;;;28.10;17.27;;;;;;;12.55;92.49;93741.97;5071202;28;20224;-74
2023/10/03 06:21:10;;;;;;;26.27;17.63;;;;;;;12.60;92.42;93747.22;5090630;28;20182;-73
2023/10/03 06:23:37;;;;;;;23.93;17.97;;;;;;;12.71;92.14;93740.94;5083717;28;20223;-72
2023/10/03 06:26:05;;;;;;;23.17;18.00;;;;;;;12.61;91.74;93735.69;5081438;28;20226;-72
2023/10/03 06:28:31;;;;;;;25.23;18.93;;;;;;;12.60;92.51;93741.19;5089077;28;20289;-73
2023/10/03 06:30:57;;;;;;;22.83;18.00;;;;;;;12.47;93.75;93746.94;5088131;28;20187;-72
2023/10/03 06:33:22;;;;;;;22.27;17.17;;;;;;;12.61;93.02;93751.41;5089956;28;20259;-72
2023/10/03 06:35:51;;;;;;;26.07;18.17;;;;;;;12.72;92.41;93749.56;5083720;28;20207;-70
2023/10/03 06:38:19;;;;;;;26.07;16.77;;;;;;;12.72;92.17;93741.69;5063603;28;20221;-71
2023/10/03 06:40:44;;;;;;;22.57;17.13;;;;;;;12.81;92.27;93761.88;5071196;28;20197;-71
2023/10/03 06:43:10;;;;;;;24.07;18.37;;;;;;;12.78;91.86;93759.78;5082060;28;20232;-71
2023/10/03 06:45:35;;;;;;;26.27;18.17;;;;;;;13.03;91.02;93745.88;5086461;28;20198;-70
2023/10/03 06:48:03;;;;;;;21.07;17.97;;;;;;;13.33;90.02;93758.13;5058002;28;20241;-71
2023/10/03 06:50:32;;;;;;;25.93;17.23;;;;;;;13.34;89.75;93762.34;5083793;28;20212;-70
2023/10/03 06:52:58;;;;;;;22.03;19.40;;;;;;;13.41;88.71;93753.16;5088908;28;20224;-72
2023/10/03 06:55:23;;;;;;;27.83;18.73;;;;;;;13.65;87.76;93761.19;5077276;28;20190;-74
2023/10/03 06:57:49;;;;;;;21.23;18.23;;;;;;;13.71;87.51;93763.50;5089700;28;20215;-75
2023/10/03 07:00:15;;;;;;;28.13;18.47;;;;;;;13.86;86.24;93768.72;5085941;28;20185;-72
2023/10/03 07:02:41;;;;;;;22.13;17.60;;;;;;;13.82;86.11;93764.28;5089366;28;20196;-73
2023/10/03 07:05:07;;;;;;;21.13;17.60;;;;;;;13.59;86.46;93770.91;5086936;28;20181;-74
2023/10/03 07:07:35;;;;;;;20.90;17.43;;;;;;;13.54;86.35;93752.56;5086084;28;20220;-74
2023/10/03 07:10:01;;;;;;;26.97;17.90;;;;;;;13.70;87.13;93782.94;5089234;28;20216;-74
2023/10/03 07:12:26;;;;;;;26.13;19.00;;;;;;;13.68;85.44;93769.28;5089980;28;20214;-74
2023/10/03 07:14:51;;;;;;;34.63;19.43;;;;;;;13.87;84.87;93788.66;5088950;28;20225;-72
2023/10/03 07:17:17;;;;;;;27.20;19.10;;;;;;;13.92;84.29;93774.72;5086320;28;20256;-72
2023/10/03 07:19:46;;;;;;;23.00;20.53;;;;;;;13.99;83.99;93788.34;5088904;28;20213;-73
2023/10/03 07:22:12;;;;;;;28.60;18.97;;;;;;;14.02;84.21;93796.44;5083884;28;20181;-72
2023/10/03 07:24:39;;;;;;;27.87;18.07;;;;;;;14.05;83.08;93790.69;5086094;28;20224;-73
2023/10/03 07:27:07;;;;;;;29.57;18.07;;;;;;;14.42;82.18;93801.53;5083047;28;20419;-73
2023/10/03 07:29:33;;;;;;;25.70;19.43;;;;;;;14.57;80.71;93807.75;5083880;28;20243;-72
2023/10/03 07:31:58;;;;;;;32.40;18.27;;;;;;;14.76;79.79;93808.63;5082066;28;20181;-72
2023/10/03 07:34:23;;;;;;;32.40;18.33;;;;;;;14.75;78.89;93799.97;5069357;28;20225;-72
2023/10/03 07:36:49;;;;;;;25.87;18.07;;;;;;;14.84;78.95;93803.59;5086661;28;20181;-72
2023/10/03 07:39:17;;;;;;;27.63;19.47;;;;;;;14.58;80.00;93799.59;5071466;28;20231;-73
2023/10/03 07:41:42;;;;;;;26.53;19.07;;;;;;;14.08;82.38;93803.28;5081600;28;20695;-73
2023/10/03 07:44:08;;;;;;;28.30;18.67;;;;;;;14.14;83.56;93802.19;5084172;28;20230;-73
2023/10/03 07:46:34;;;;;;;32.43;20.93;;;;;;;14.37;81.17;93785.00;5086954;28;20196;-73
2023/10/03 07:49:01;;;;;;;28.47;19.50;;;;;;;14.59;81.29;93803.78;5085053;28;20904;-74
2023/10/03 07:51:29;;;;;;;29.37;19.87;;;;;;;14.76;81.43;93800.75;5090309;28;20244;-74
2023/10/03 07:53:55;;;;;;;24.77;18.30;;;;;;;14.89;79.38;93794.88;5085240;28;20225;-74
2023/10/03 07:56:30;;;;;;;37.13;18.03;;;;;;;14.71;79.97;93803.44;5087385;28;20181;-75
2023/10/03 07:58:59;;;;;;;31.50;18.57;;;;;;;15.15;77.58;93797.00;5065049;28;20247;-73
2023/10/03 08:01:25;;;;;;;26.17;18.17;;;;;;;14.92;79.33;93787.22;5068779;28;20189;-75
2023/10/03 08:03:54;;;;;;;27.43;18.13;;;;;;;15.38;78.45;93800.75;5051153;28;20224;-77
2023/10/03 08:06:24;;;;;;;27.77;18.30;;;;;;;15.57;75.82;93796.34;5061580;28;20269;-75
2023/10/03 08:08:52;;;;;;;27.07;19.03;;;;;;;15.68;75.01;93803.09;5076069;28;20241;-73
2023/10/03 08:11:21;;;;;;;30.37;18.40;;;;;;;15.82;75.47;93803.97;5059226;28;20259;-73
2023/10/03 08:13:49;;;;;;;23.87;18.50;;;;;;;15.64;76.65;93802.09;5070242;28;20259;-77
2023/10/03 08:16:15;;;;;;;24.83;17.97;;;;;;;15.23;76.93;93790.34;5057184;28;20182;-79
2023/10/03 08:18:46;;;;;;;24.43;17.37;;;;;;;15.41;77.12;93792.34;5054689;28;20702;-83
2023/10/03 08:21:12;;;;;;;21.50;17.47;;;;;;;15.69;74.44;93770.41;5060723;28;20204;-81
2023/10/03 08:23:38;;;;;;;23.07;18.43;;;;;;;16.05;73.77;93798.69;5065181;28;20229;-83
2023/10/03 08:26:03;;;;;;;25.83;18.30;;;;;;;15.94;72.83;93796.44;5061775;28;20225;-86
2023/10/03 08:28:32;;;;;;;22.70;15.77;;;;;;;16.21;72.61;93807.19;5065089;28;20218;-82
2023/10/03 08:31:06;;;;;;;25.37;17.70;;;;;;;16.03;72.22;93761.31;5064962;28;20193;-79
2023/10/03 08:33:36;;;;;;;28.40;16.83;;;;;;;16.33;72.28;93807.56;5062483;28;20222;-83
2023/10/03 08:36:02;;;;;;;24.63;18.03;;;;;;;16.23;71.59;93783.19;5067310;28;20272;-82
2023/10/03 08:38:28;;;;;;;17.67;14.43;;;;;;;15.86;73.03;93797.06;5061837;28;20222;-79
2023/10/03 08:40:56;;;;;;;22.43;17.03;;;;;;;16.05;72.64;93797.91;5067692;28;20201;-81
2023/10/03 08:43:25;;;;;;;26.47;17.00;;;;;;;16.12;72.42;93753.56;5060803;28;20225;-81
2023/10/03 08:45:56;;;;;;;23.43;16.47;;;;;;;16.26;72.05;93799.22;5067546;28;20181;-84
2023/10/03 08:48:24;;;;;;;20.10;15.73;;;;;;;16.53;69.95;93786.22;5063398;28;20290;-80
2023/10/03 08:50:53;;;;;;;18.13;15.97;;;;;;;16.87;69.53;93796.53;5066374;28;20201;-79
2023/10/03 08:53:26;;;;;;;23.23;16.37;;;;;;;16.81;68.78;93790.53;5057126;28;20241;-79
2023/10/03 08:56:01;;;;;;;19.03;16.57;;;;;;;16.75;69.55;93793.53;5067867;28;20174;-82
2023/10/03 08:58:27;;;;;;;19.00;15.90;;;;;;;16.85;69.09;93791.53;5058463;28;20225;-80
2023/10/03 09:01:01;;;;;;;20.70;16.87;;;;;;;16.81;68.53;93785.25;5065793;28;20196;-81
2023/10/03 09:03:47;;;;;;;19.37;15.93;;;;;;;16.48;70.23;93775.75;5068098;28;20233;-81
2023/10/03 09:06:19;;;;;;;24.67;16.47;;;;;;;16.54;72.22;93773.81;5068065;28;20200;-81
2023/10/03 09:09:08;;;;;;;31.77;16.27;;;;;;;16.58;70.39;93782.72;5057711;28;20241;-84
2023/10/03 09:11:37;;;;;;;21.63;16.67;;;;;;;16.61;71.43;93768.94;5058164;28;20218;-82
2023/10/03 09:14:03;;;;;;;20.40;14.70;;;;;;;17.03;69.54;93771.44;5059734;28;20286;-82
2023/10/03 09:16:28;;;;;;;27.03;15.33;;;;;;;17.28;67.11;93774.44;5063125;28;20216;-81
2023/10/03 09:18:57;;;;;;;21.13;15.70;;;;;;;16.91;68.66;93777.19;5068211;28;20236;-81
2023/10/03 09:21:27;;;;;;;25.10;15.07;;;;;;;17.24;67.30;93773.47;5066206;28;20217;-82
2023/10/03 09:24:12;;;;;;;18.47;14.43;;;;;;;17.43;66.85;93779.44;5065091;28;20224;-86
2023/10/03 09:26:46;;;;;;;16.40;14.80;;;;;;;17.47;67.65;93777.84;5061845;28;20229;-84
2023/10/03 09:29:29;;;;;;;19.73;15.63;;;;;;;17.67;65.99;93765.31;5065795;28;20221;-83
2023/10/03 09:31:57;;;;;;;20.37;15.53;;;;;;;17.33;66.97;93771.72;5054442;28;20177;-90
2023/10/03 09:34:32;;;;;;;24.13;16.70;;;;;;;17.55;67.34;93755.25;5062371;28;21022;-86
2023/10/03 09:37:02;;;;;;;23.53;17.97;;;;;;;17.24;67.43;93762.13;5064571;28;20201;-81
2023/10/03 09:39:29;;;;;;;22.27;17.67;;;;;;;17.32;67.15;93762.22;5066637;28;20231;-80
2023/10/03 09:41:55;;;;;;;20.33;15.67;;;;;;;17.63;66.33;93763.25;5052921;28;20192;-73
2023/10/03 09:44:29;;;;;;;20.53;14.97;;;;;;;17.53;67.49;93757.38;5068093;28;20253;-74
2023/10/03 09:47:06;;;;;;;20.43;14.53;;;;;;;17.99;64.77;93763.38;5070002;28;20177;-84
2023/10/03 09:49:39;;;;;;;17.33;15.03;;;;;;;18.04;63.36;93751.91;5058839;28;20229;-85
2023/10/03 09:52:26;;;;;;;20.37;15.40;;;;;;;17.91;64.28;93750.84;5064751;28;20186;-81
2023/10/03 09:54:59;;;;;;;15.77;14.10;;;;;;;18.11;64.64;93757.56;5061798;28;20233;-82
2023/10/03 09:57:28;;;;;;;20.03;15.83;;;;;;;18.12;62.99;93751.19;5070045;28;20269;-83
2023/10/03 09:59:55;;;;;;;21.97;14.83;;;;;;;17.83;64.82;93754.19;5061932;28;20257;-81
2023/10/03 10:02:31;;;;;;;20.93;14.60;;;;;;;18.15;63.05;93761.19;5065638;28;20273;-82
2023/10/03 10:05:27;;;;;;;17.93;14.60;;;;;;;18.03;64.08;93759.03;5070805;28;20222;-84
2023/10/03 10:08:08;;;;;;;17.40;15.27;;;;;;;17.55;66.09;93740.19;5049580;28;20241;-81
2023/10/03 10:10:35;;;;;;;16.90;14.73;;;;;;;18.00;63.18;93756.19;5065945;28;20288;-81
2023/10/03 10:13:13;;;;;;;22.87;14.23;;;;;;;18.33;61.79;93747.03;5063436;28;20236;-82
2023/10/03 10:16:01;;;;;;;19.03;14.97;;;;;;;17.96;63.05;93752.59;5057248;28;20201;-78
2023/10/03 10:18:44;;;;;;;18.43;14.60;;;;;;;18.36;62.90;93741.16;5068247;28;20214;-81
2023/10/03 10:21:22;;;;;;;18.60;15.07;;;;;;;18.54;61.32;93735.75;5069229;28;20181;-82
2023/10/03 10:24:15;;;;;;;17.43;14.50;;;;;;;18.44;62.34;93737.84;5070907;28;20252;-82
2023/10/03 10:26:59;;;;;;;18.23;14.43;;;;;;;18.87;60.66;93731.78;5071053;28;20221;-82
2023/10/03 10:29:25;;;;;;;20.80;13.17;;;;;;;18.53;60.89;93726.25;5071306;28;20226;-81
2023/10/03 10:31:58;;;;;;;17.93;15.20;;;;;;;18.49;61.29;93725.28;5071205;28;20192;-81
2023/10/03 10:34:29;;;;;;;18.30;14.33;;;;;;;18.28;62.43;93718.06;5068888;28;20227;-82
2023/10/03 10:36:56;;;;;;;17.73;14.57;;;;;;;18.26;62.51;93715.72;5058891;28;20190;-81
2023/10/03 10:39:23;;;;;;;19.77;15.17;;;;;;;18.25;61.74;93718.66;5066861;28;20220;-82
2023/10/03 10:42:14;;;;;;;21.53;14.07;;;;;;;18.67;60.38;93715.59;5062728;28;20208;-82
2023/10/03 10:45:14;;;;;;;16.40;14.80;;;;;;;18.19;60.53;93682.84;5064463;28;20252;-82
2023/10/03 10:47:49;;;;;;;17.23;14.90;;;;;;;18.20;61.80;93708.97;5070738;28;20185;-83
2023/10/03 10:50:17;;;;;;;18.83;14.77;;;;;;;18.13;62.02;93695.41;5070072;28;20358;-75
2023/10/03 10:53:08;;;;;;;15.00;13.43;;;;;;;18.76;61.73;93705.84;5067426;28;20179;-73
2023/10/03 10:55:34;;;;;;;16.83;13.43;;;;;;;19.14;58.06;93697.19;5066142;28;20249;-73
2023/10/03 10:58:13;;;;;;;15.43;13.93;;;;;;;18.73;60.22;93699.31;5070694;28;20294;-76
2023/10/03 11:00:40;;;;;;;18.73;13.90;;;;;;;18.99;58.95;93691.50;5065908;28;20181;-75
2023/10/03 11:03:07;;;;;;;19.90;15.17;;;;;;;18.85;60.12;93690.81;5059944;28;20225;-77
2023/10/03 11:05:45;;;;;;;16.90;13.50;;;;;;;18.75;58.74;93689.22;5067809;28;20216;-77
2023/10/03 11:08:10;;;;;;;15.50;12.83;;;;;;;18.32;59.78;93664.28;5069040;28;20222;-76
2023/10/03 11:10:56;;;;;;;15.67;13.97;;;;;;;18.63;59.74;93685.56;5062957;28;20208;-75
2023/10/03 11:13:23;;;;;;;17.30;13.33;;;;;;;18.76;59.10;93682.03;5067813;28;20229;-76
2023/10/03 11:15:52;;;;;;;17.50;13.00;;;;;;;18.96;59.06;93684.97;5061603;28;20177;-77
2023/10/03 11:18:27;;;;;;;19.13;13.50;;;;;;;18.90;58.93;93685.41;5063772;28;20235;-76
2023/10/03 11:20:55;;;;;;;22.60;20.20;;;;;;;18.82;58.24;93665.75;5064762;28;20184;-79
2023/10/03 11:23:23;;;;;;;17.60;13.30;;;;;;;19.16;57.85;93675.72;5055067;28;20225;-77
2023/10/03 11:25:59;;;;;;;18.53;14.30;;;;;;;19.03;58.67;93677.38;5091430;28;20226;-80
2023/10/03 11:28:28;;;;;;;19.53;15.50;;;;;;;18.79;59.97;93652.34;5061888;28;20233;-77